Terminal Aerodrome Forecast
Issued by NWS

Home | Current Version | Previous Version | Text Only | Print | Product List | Glossary On
Versions: 1 2 3 4 5 6 7 8 9 10 11 12 13 14 15 16 17 18 19 20
414
FTUS43 KBIS 182331
TAFDIK
TAF
KDIK 182331Z 1900/1924 33005KT P6SM SKC
     FM190200 09007KT P6SM SKC
     FM190400 13007KT P6SM SKC
     FM191000 19008KT P6SM FEW250
     FM191400 24014G22KT P6SM FEW250
     FM192100 30018G26KT P6SM FEW200=

USA.gov is the U.S. government's official web portal to all federal, state and local government web resources and services.